This is the latest recevied weather packets stored in our database for station/object YN8O-13. If no packets are shown the sender has not sent any weather packets the latest 10 day(s).
| Time | Temp. | Humidity | Pressure | Rain* | Wind** | Luminosity | Snow |
|---|---|---|---|---|---|---|---|
| 1778178290 | 31.11° C | 30% | 1012 hPa | 0 mm | - | - | - |
| 1778177689 | 31.11° C | 30% | 1012 hPa | 0 mm | - | - | - |
| 1778176489 | 31.67° C | 29% | 1012 hPa | 0 mm | - | - | - |
| 1778175288 | 31.11° C | 32% | 1012 hPa | 0 mm | - | - | - |
| 1778174688 | 30° C | 37% | 1013 hPa | 0 mm | - | - | - |
| 1778174087 | 30° C | 37% | 1013 hPa | 0 mm | - | - | - |
| 1778173487 | 30° C | 37% | 1013 hPa | 0 mm | - | - | - |
| 1778172887 | 30° C | 37% | 1013 hPa | 0 mm | - | - | - |
| 1778171686 | 30° C | 42% | 1013 hPa | 0 mm | - | - | - |
| 1778171086 | 28.33° C | 52% | 1014 hPa | 0 mm | - | - | - |
| 1778170485 | 28.33° C | 52% | 1014 hPa | 0 mm | - | - | - |
| 1778169885 | 28.33° C | 52% | 1014 hPa | 0 mm | - | - | - |
| 1778169284 | 27.78° C | 53% | 1014 hPa | 0 mm | - | - | - |
| 1778167483 | 25° C | 63% | 1014 hPa | 0 mm | - | - | - |
| 1778166882 | 25° C | 63% | 1014 hPa | 0 mm | - | - | - |
| 1778166282 | 25° C | 63% | 1014 hPa | 0 mm | - | - | - |
| 1778165682 | 25° C | 63% | 1014 hPa | 0 mm | - | - | - |
| 1778164481 | 23.89° C | 68% | 1014 hPa | 0 mm | - | - | - |
| 1778163880 | 23.89° C | 68% | 1014 hPa | 0 mm | - | - | - |
| 1778163280 | 24.44° C | 68% | 1014 hPa | 0 mm | - | - | - |
| 1778162680 | 22.78° C | 68% | 1014 hPa | 0 mm | - | - | - |
| 1778162079 | 22.78° C | 68% | 1014 hPa | 0 mm | - | - | - |
| 1778161479 | 23.33° C | 68% | 1014 hPa | 0 mm | - | - | - |
| 1778160879 | 22.78° C | 71% | 1014 hPa | 0 mm | - | - | - |
| 1778160278 | 22.78° C | 71% | 1014 hPa | 0 mm | - | - | - |
* Rain latest hour (hover to see other rain measurements)
** Current wind speed in m/s (hover to see current wind gust speed)